createdAt,value
2023-04-26T00:01:31.223Z,77.13
2023-04-26T00:03:58.348Z,77.13
2023-04-26T00:06:27.300Z,77.23
2023-04-26T00:08:54.652Z,77.11
2023-04-26T00:11:21.745Z,77.05
2023-04-26T00:13:48.383Z,76.94
2023-04-26T00:16:15.418Z,77.02
2023-04-26T00:18:43.348Z,77.11
2023-04-26T00:21:10.287Z,76.96
2023-04-26T00:23:36.862Z,76.96
2023-04-26T00:26:04.138Z,76.85
2023-04-26T00:28:31.537Z,76.35
2023-04-26T00:30:58.367Z,76.82
2023-04-26T00:33:25.539Z,76.64
2023-04-26T00:35:53.029Z,76.49
2023-04-26T00:38:19.696Z,76.90
2023-04-26T00:40:46.512Z,76.90
2023-04-26T00:43:13.390Z,76.83
2023-04-26T00:45:40.060Z,76.78
2023-04-26T00:48:07.051Z,76.65
2023-04-26T00:50:34.392Z,76.40
2023-04-26T00:53:02.771Z,76.75
2023-04-26T00:55:29.664Z,76.53
2023-04-26T00:57:56.574Z,76.66
2023-04-26T01:00:23.300Z,76.83
2023-04-26T01:02:50.380Z,76.72
2023-04-26T01:05:18.100Z,76.88
2023-04-26T01:07:46.110Z,77.01
2023-04-26T01:10:13.188Z,76.98
2023-04-26T01:12:40.054Z,76.83
2023-04-26T01:15:07.183Z,76.91
2023-04-26T01:17:34.117Z,76.84
2023-04-26T01:20:01.168Z,77.08
2023-04-26T01:22:28.782Z,77.07
2023-04-26T01:24:57.328Z,77.22
2023-04-26T01:27:24.166Z,77.20
2023-04-26T01:29:50.892Z,77.06
2023-04-26T01:32:17.624Z,77.02
2023-04-26T01:34:44.316Z,77.07
2023-04-26T01:37:11.527Z,77.15
2023-04-26T01:39:38.496Z,77.30
2023-04-26T01:42:05.848Z,77.50
2023-04-26T01:44:32.477Z,77.68
2023-04-26T01:46:59.142Z,77.63
2023-04-26T01:49:25.847Z,77.40
2023-04-26T01:51:52.571Z,77.27
2023-04-26T01:54:23.443Z,77.14
2023-04-26T01:56:50.210Z,77.11
2023-04-26T01:59:16.860Z,76.94
2023-04-26T02:01:43.759Z,77.21
2023-04-26T02:04:10.809Z,77.25
2023-04-26T02:06:42.323Z,77.36
2023-04-26T02:09:09.940Z,77.49
2023-04-26T02:11:36.669Z,77.43
2023-04-26T02:14:03.287Z,77.47
2023-04-26T02:16:30.824Z,77.37
2023-04-26T02:18:57.716Z,77.53
2023-04-26T02:21:24.290Z,77.73
2023-04-26T02:23:51.012Z,77.85
2023-04-26T02:26:17.946Z,77.74
2023-04-26T02:28:44.679Z,77.71
2023-04-26T02:31:11.686Z,77.62
2023-04-26T02:33:38.713Z,77.82
2023-04-26T02:36:06.600Z,77.65
2023-04-26T02:38:35.800Z,77.74
2023-04-26T02:41:04.214Z,77.51
2023-04-26T02:43:31.077Z,77.50
2023-04-26T02:46:01.475Z,77.59
2023-04-26T02:48:28.576Z,77.44
2023-04-26T02:50:55.233Z,77.42
2023-04-26T02:53:21.934Z,77.30
2023-04-26T02:55:48.602Z,77.28
2023-04-26T02:58:15.543Z,77.48
2023-04-26T03:00:48.564Z,77.61
2023-04-26T03:03:15.959Z,77.43
2023-04-26T03:05:42.857Z,77.42
2023-04-26T03:08:09.570Z,77.45
2023-04-26T03:10:36.498Z,77.54
2023-04-26T03:13:05.391Z,77.44
2023-04-26T03:15:32.052Z,77.26
2023-04-26T03:17:58.937Z,77.32
2023-04-26T03:20:25.890Z,77.40
2023-04-26T03:22:52.949Z,77.79
2023-04-26T03:25:28.854Z,77.82
2023-04-26T03:28:00.035Z,77.68
2023-04-26T03:30:26.652Z,77.95
2023-04-26T03:32:54.233Z,77.90
2023-04-26T03:35:21.105Z,77.76
2023-04-26T03:37:47.852Z,78.10
2023-04-26T03:40:14.656Z,78.10
2023-04-26T03:42:41.436Z,78.15
2023-04-26T03:45:08.661Z,78.10
2023-04-26T03:47:35.693Z,78.04
2023-04-26T03:50:03.484Z,78.15
2023-04-26T03:52:30.065Z,77.87
2023-04-26T03:54:56.966Z,77.95
2023-04-26T03:57:23.969Z,78.19
2023-04-26T03:59:50.538Z,78.11
2023-04-26T04:02:17.627Z,78.20
2023-04-26T04:04:44.820Z,78.01
2023-04-26T04:07:11.694Z,78.07
2023-04-26T04:09:38.288Z,77.99
2023-04-26T04:12:05.062Z,78.12
2023-04-26T04:14:31.966Z,78.13
2023-04-26T04:16:59.636Z,78.13
2023-04-26T04:19:26.859Z,78.07
2023-04-26T04:21:53.516Z,77.98
2023-04-26T04:24:20.188Z,77.95
2023-04-26T04:26:47.276Z,77.70
2023-04-26T04:29:14.213Z,77.95
2023-04-26T04:31:41.792Z,77.98
2023-04-26T04:34:09.137Z,78.25
2023-04-26T04:36:35.862Z,78.12
2023-04-26T04:39:03.380Z,78.19
2023-04-26T04:41:30.177Z,78.12
2023-04-26T04:43:58.539Z,78.02
2023-04-26T04:46:25.620Z,78.03
2023-04-26T04:48:53.804Z,77.95
2023-04-26T04:51:21.261Z,77.88
2023-04-26T04:53:47.925Z,78.00
2023-04-26T04:56:15.869Z,78.05
2023-04-26T04:58:42.478Z,78.09
2023-04-26T05:01:10.155Z,77.83
2023-04-26T05:03:36.903Z,78.06
2023-04-26T05:06:03.866Z,77.93
2023-04-26T05:08:30.599Z,78.14
2023-04-26T05:10:57.431Z,77.97
2023-04-26T05:13:24.085Z,77.94
2023-04-26T05:15:50.782Z,78.05
2023-04-26T05:18:17.715Z,78.11
2023-04-26T05:20:44.348Z,78.00
2023-04-26T05:23:11.180Z,77.96
2023-04-26T05:25:38.278Z,77.72
2023-04-26T05:28:04.961Z,77.95
2023-04-26T05:30:31.724Z,78.04
2023-04-26T05:32:58.882Z,78.19
2023-04-26T05:35:25.600Z,78.09
2023-04-26T05:37:52.511Z,78.25
2023-04-26T05:40:19.380Z,78.36
2023-04-26T05:42:46.058Z,78.35
2023-04-26T05:45:13.766Z,78.30
2023-04-26T05:47:40.788Z,78.15
2023-04-26T05:50:08.320Z,78.25
2023-04-26T05:52:35.232Z,78.25
2023-04-26T05:55:04.279Z,78.14
2023-04-26T05:57:31.021Z,78.36
2023-04-26T05:59:57.824Z,78.26
2023-04-26T06:02:26.164Z,78.20
2023-04-26T06:04:54.321Z,78.14
2023-04-26T06:07:21.477Z,78.03
2023-04-26T06:09:48.507Z,77.99
2023-04-26T06:12:15.197Z,77.98
2023-04-26T06:14:42.091Z,78.08
2023-04-26T06:17:09.609Z,77.90
2023-04-26T06:19:36.499Z,78.00
2023-04-26T06:22:03.786Z,77.92
2023-04-26T06:24:32.492Z,77.73
2023-04-26T06:26:59.190Z,77.68
2023-04-26T06:29:26.339Z,77.69
2023-04-26T06:31:52.994Z,77.94
2023-04-26T06:34:19.998Z,77.80
2023-04-26T06:36:47.312Z,77.73
2023-04-26T06:39:14.249Z,77.82
2023-04-26T06:41:40.997Z,77.72
2023-04-26T06:44:07.829Z,77.64
2023-04-26T06:46:34.769Z,77.55
2023-04-26T06:49:01.798Z,77.25
2023-04-26T06:51:29.927Z,77.30
2023-04-26T06:53:59.113Z,77.32
2023-04-26T06:56:25.869Z,77.13
2023-04-26T06:59:01.360Z,77.08
2023-04-26T07:01:29.430Z,77.14
2023-04-26T07:03:57.710Z,77.12
2023-04-26T07:06:26.561Z,76.99
2023-04-26T07:08:53.772Z,76.94
2023-04-26T07:11:22.775Z,76.99
2023-04-26T07:13:51.540Z,76.97
2023-04-26T07:16:18.442Z,77.04
2023-04-26T07:18:45.203Z,76.96
2023-04-26T07:21:12.396Z,76.60
2023-04-26T07:23:39.055Z,76.75
2023-04-26T07:26:06.140Z,76.65
2023-04-26T07:28:33.071Z,76.13
2023-04-26T07:31:01.713Z,75.97
2023-04-26T07:33:28.374Z,75.93
2023-04-26T07:35:59.760Z,75.89
2023-04-26T07:38:26.455Z,75.99
2023-04-26T07:40:53.504Z,75.93
2023-04-26T07:43:21.475Z,75.94
2023-04-26T07:45:48.493Z,75.94
2023-04-26T07:48:15.813Z,75.81
2023-04-26T07:50:42.792Z,75.88
2023-04-26T07:53:09.477Z,75.60
2023-04-26T07:55:37.494Z,75.44
2023-04-26T07:58:04.664Z,74.95
2023-04-26T08:00:31.426Z,75.00
2023-04-26T08:02:58.388Z,74.94
2023-04-26T08:05:26.069Z,75.14
2023-04-26T08:07:52.849Z,75.17
2023-04-26T08:10:19.577Z,75.09
2023-04-26T08:12:46.680Z,74.80
2023-04-26T08:15:13.420Z,74.92
2023-04-26T08:17:40.170Z,74.99
2023-04-26T08:20:09.615Z,74.79
2023-04-26T08:22:36.715Z,74.69
2023-04-26T08:25:04.692Z,74.33
2023-04-26T08:27:32.016Z,74.30
2023-04-26T08:29:58.744Z,74.33
2023-04-26T08:32:26.049Z,74.22
2023-04-26T08:34:53.028Z,74.10
2023-04-26T08:37:19.624Z,74.17
2023-04-26T08:39:46.761Z,74.39
2023-04-26T08:42:15.984Z,74.31
2023-04-26T08:44:45.770Z,74.37
2023-04-26T08:47:22.565Z,74.40
2023-04-26T08:49:59.481Z,74.41
2023-04-26T08:52:31.437Z,74.28
2023-04-26T08:54:59.370Z,74.39
2023-04-26T08:57:26.770Z,74.36
2023-04-26T08:59:56.309Z,74.44
2023-04-26T09:02:24.293Z,74.52
2023-04-26T09:04:51.877Z,74.53
2023-04-26T09:07:27.502Z,74.53
2023-04-26T09:09:56.718Z,74.54
2023-04-26T09:12:23.395Z,74.66
2023-04-26T09:14:50.270Z,74.50
2023-04-26T09:17:32.618Z,74.49
2023-04-26T09:20:00.901Z,74.08
2023-04-26T09:22:32.640Z,74.10
2023-04-26T09:25:00.157Z,73.44
2023-04-26T09:27:36.830Z,73.30
2023-04-26T09:30:08.296Z,73.06
2023-04-26T09:32:54.704Z,73.34
2023-04-26T09:35:28.100Z,73.31
2023-04-26T09:38:00.185Z,73.35
2023-04-26T09:40:36.547Z,73.07
2023-04-26T09:43:05.525Z,72.95
2023-04-26T09:45:33.933Z,72.75
2023-04-26T09:48:19.319Z,72.88
2023-04-26T09:50:46.413Z,72.90
2023-04-26T09:53:28.244Z,72.75
2023-04-26T09:55:56.322Z,72.86
2023-04-26T09:58:26.008Z,72.56
2023-04-26T10:00:52.878Z,72.63
2023-04-26T10:03:21.098Z,72.98
2023-04-26T10:05:48.502Z,73.00
2023-04-26T10:08:15.453Z,73.36
2023-04-26T10:10:43.962Z,73.36
2023-04-26T10:13:12.708Z,73.34
2023-04-26T10:15:40.081Z,73.31
2023-04-26T10:18:07.028Z,73.68
2023-04-26T10:20:36.034Z,73.19
2023-04-26T10:23:06.399Z,73.34
2023-04-26T10:25:36.680Z,73.26
2023-04-26T10:28:03.703Z,73.38
2023-04-26T10:30:30.769Z,73.09
2023-04-26T10:32:57.523Z,73.09
2023-04-26T10:35:26.698Z,72.90
2023-04-26T10:38:02.545Z,73.01
2023-04-26T10:40:33.075Z,73.15
2023-04-26T10:43:12.068Z,73.05
2023-04-26T10:45:40.014Z,73.28
2023-04-26T10:48:22.023Z,73.12
2023-04-26T10:51:12.588Z,72.98
2023-04-26T10:53:48.403Z,72.91
2023-04-26T10:56:24.235Z,72.70
2023-04-26T11:01:41.090Z,72.55
2023-04-26T11:04:12.534Z,72.54
2023-04-26T11:06:57.714Z,72.57
2023-04-26T11:09:41.428Z,72.72
2023-04-26T11:12:13.284Z,72.59
2023-04-26T11:14:42.099Z,72.67
2023-04-26T11:17:09.904Z,72.64
2023-04-26T11:19:37.173Z,72.77
2023-04-26T11:22:07.103Z,72.81
2023-04-26T11:24:36.893Z,72.52
2023-04-26T11:27:10.481Z,72.54
2023-04-26T11:29:37.687Z,72.59
2023-04-26T11:32:05.037Z,72.50
2023-04-26T11:34:36.498Z,72.51
2023-04-26T11:37:05.071Z,72.59
2023-04-26T11:39:32.774Z,72.61
2023-04-26T11:42:12.856Z,72.75
2023-04-26T11:44:41.275Z,72.32
2023-04-26T11:47:08.646Z,72.15
2023-04-26T11:49:38.809Z,72.08
2023-04-26T11:52:06.620Z,71.97
2023-04-26T11:54:34.974Z,71.96
2023-04-26T11:57:04.586Z,71.97
2023-04-26T11:59:31.750Z,72.17
2023-04-26T12:01:58.947Z,72.26
2023-04-26T12:04:30.686Z,72.31
2023-04-26T12:06:58.580Z,72.48
2023-04-26T12:09:28.326Z,72.45
2023-04-26T12:12:01.186Z,72.38
2023-04-26T12:14:34.914Z,72.22
2023-04-26T12:17:03.431Z,72.39
2023-04-26T12:19:33.990Z,72.29
2023-04-26T12:22:00.637Z,72.44
2023-04-26T12:24:48.170Z,72.64
2023-04-26T12:27:21.954Z,72.63
2023-04-26T12:29:48.622Z,72.67
2023-04-26T12:32:15.306Z,72.62
2023-04-26T12:34:42.125Z,72.63
2023-04-26T12:37:08.873Z,72.45
2023-04-26T12:39:35.579Z,72.48
2023-04-26T12:42:03.070Z,72.54
2023-04-26T12:44:30.099Z,72.34
2023-04-26T12:46:56.943Z,72.33
2023-04-26T12:49:23.672Z,72.32
2023-04-26T12:51:50.556Z,72.12
2023-04-26T12:54:17.187Z,72.13
2023-04-26T12:56:45.059Z,72.18
2023-04-26T12:59:11.952Z,72.14
2023-04-26T13:01:38.845Z,72.19
2023-04-26T13:04:06.286Z,72.02
2023-04-26T13:06:34.158Z,72.00
2023-04-26T13:09:01.595Z,72.07
2023-04-26T13:11:28.220Z,71.82
2023-04-26T13:13:55.195Z,71.81
2023-04-26T13:16:22.194Z,71.57
2023-04-26T13:18:48.827Z,71.59
2023-04-26T13:21:15.467Z,71.72
2023-04-26T13:23:42.259Z,71.55
2023-04-26T13:26:08.906Z,71.48
2023-04-26T13:28:36.388Z,71.38
2023-04-26T13:31:03.300Z,71.32
2023-04-26T13:33:30.368Z,71.37
2023-04-26T13:35:57.023Z,71.34
2023-04-26T13:38:23.725Z,71.07
2023-04-26T13:40:50.556Z,70.97
2023-04-26T13:43:17.387Z,71.11
2023-04-26T13:45:44.228Z,70.83
2023-04-26T13:48:11.514Z,70.68
2023-04-26T13:50:38.219Z,71.02
2023-04-26T13:53:04.962Z,70.81
2023-04-26T13:55:31.870Z,70.79
2023-04-26T13:57:58.962Z,70.70
2023-04-26T14:00:25.727Z,70.52
2023-04-26T14:02:52.651Z,70.38
2023-04-26T14:05:19.552Z,70.48
2023-04-26T14:07:46.192Z,70.09
2023-04-26T14:10:12.854Z,70.03
2023-04-26T14:12:40.045Z,69.95
2023-04-26T14:15:07.769Z,69.90
2023-04-26T14:17:34.468Z,70.02
2023-04-26T14:20:01.291Z,69.95
2023-04-26T14:22:28.219Z,69.86
2023-04-26T14:24:54.952Z,69.64
2023-04-26T14:27:21.843Z,69.82
2023-04-26T14:29:48.508Z,69.66
2023-04-26T14:32:15.324Z,69.71
2023-04-26T14:34:42.976Z,69.77
2023-04-26T14:37:10.578Z,69.55
2023-04-26T14:39:37.417Z,69.55
2023-04-26T14:42:04.448Z,69.59
2023-04-26T14:44:31.394Z,69.46
2023-04-26T14:46:58.352Z,69.64
2023-04-26T14:49:25.000Z,69.81
2023-04-26T14:51:53.672Z,69.72
2023-04-26T14:54:21.229Z,69.72
2023-04-26T14:56:48.552Z,69.95
2023-04-26T14:59:15.601Z,69.38
2023-04-26T15:01:42.329Z,69.28
2023-04-26T15:04:09.232Z,69.06
2023-04-26T15:06:36.176Z,68.78
2023-04-26T15:09:03.800Z,68.56
2023-04-26T15:11:30.789Z,68.28
2023-04-26T15:13:57.452Z,68.30
2023-04-26T15:16:24.075Z,68.06
2023-04-26T15:18:51.085Z,67.91
2023-04-26T15:21:18.568Z,67.97
2023-04-26T15:23:45.266Z,67.88
2023-04-26T15:26:11.983Z,67.65
2023-04-26T15:28:38.996Z,67.38
2023-04-26T15:31:09.760Z,67.05
2023-04-26T15:33:36.759Z,66.81
2023-04-26T15:36:03.823Z,66.59
2023-04-26T15:38:30.878Z,66.80
2023-04-26T15:40:57.546Z,66.46
2023-04-26T15:43:24.327Z,66.49
2023-04-26T15:45:51.507Z,66.45
2023-04-26T15:48:18.236Z,66.47
2023-04-26T15:50:45.410Z,66.30
2023-04-26T15:53:12.422Z,66.49
2023-04-26T15:55:39.094Z,66.32
2023-04-26T15:58:06.040Z,66.12
2023-04-26T16:00:34.007Z,65.62
2023-04-26T16:03:02.137Z,65.67
2023-04-26T16:05:29.067Z,65.59
2023-04-26T16:07:55.776Z,65.64
2023-04-26T16:10:22.485Z,65.80
2023-04-26T16:12:49.813Z,65.98
2023-04-26T16:15:16.527Z,65.99
2023-04-26T16:17:43.541Z,65.97
2023-04-26T16:20:10.965Z,65.85
2023-04-26T16:22:37.829Z,65.55
2023-04-26T16:25:06.988Z,65.26
2023-04-26T16:27:34.008Z,65.34
2023-04-26T16:30:01.022Z,64.93
2023-04-26T16:32:27.810Z,65.19
2023-04-26T16:34:54.525Z,65.23
2023-04-26T16:37:21.413Z,65.02
2023-04-26T16:39:48.067Z,64.99
2023-04-26T16:42:14.793Z,64.67
2023-04-26T16:44:41.626Z,64.54
2023-04-26T16:47:08.238Z,63.78
2023-04-26T16:49:34.949Z,63.00
2023-04-26T16:52:01.884Z,62.65
2023-04-26T16:54:28.795Z,62.27
2023-04-26T16:56:56.248Z,61.93
2023-04-26T16:59:23.299Z,61.65
2023-04-26T17:01:50.664Z,61.59
2023-04-26T17:04:17.523Z,61.46
2023-04-26T17:06:45.881Z,61.25
2023-04-26T17:09:13.077Z,61.15
2023-04-26T17:11:43.515Z,60.97
2023-04-26T17:14:10.494Z,60.80
2023-04-26T17:16:37.391Z,60.76
2023-04-26T17:19:04.407Z,60.47
2023-04-26T17:21:31.962Z,60.20
2023-04-26T17:23:58.700Z,59.88
2023-04-26T17:26:25.389Z,59.91
2023-04-26T17:28:54.046Z,59.79
2023-04-26T17:31:20.852Z,59.95
2023-04-26T17:33:47.879Z,59.87
2023-04-26T17:36:14.614Z,60.06
2023-04-26T17:38:41.623Z,59.89
2023-04-26T17:41:08.381Z,59.75
2023-04-26T17:43:35.000Z,59.52
2023-04-26T17:46:02.433Z,59.22
2023-04-26T17:48:29.282Z,59.39
2023-04-26T17:50:56.567Z,59.36
2023-04-26T17:53:23.323Z,59.12
2023-04-26T17:55:53.043Z,59.29
2023-04-26T17:58:19.785Z,59.02
2023-04-26T18:00:46.774Z,58.93
2023-04-26T18:03:13.888Z,58.82
2023-04-26T18:05:41.007Z,58.38
2023-04-26T18:08:07.588Z,58.50
2023-04-26T18:10:34.225Z,58.41
2023-04-26T18:13:00.904Z,58.41
2023-04-26T18:15:27.621Z,58.35
2023-04-26T18:17:54.312Z,58.27
2023-04-26T18:20:21.672Z,58.05
2023-04-26T18:22:48.318Z,57.79
2023-04-26T18:25:15.551Z,58.27
2023-04-26T18:27:42.438Z,58.30
2023-04-26T18:30:09.810Z,58.13
2023-04-26T18:32:36.585Z,57.98
2023-04-26T18:35:06.350Z,57.95
2023-04-26T18:37:33.112Z,57.90
2023-04-26T18:39:59.764Z,57.92
2023-04-26T18:42:26.575Z,57.76
2023-04-26T18:44:53.549Z,57.61
2023-04-26T18:47:20.601Z,57.80
2023-04-26T18:49:47.358Z,58.05
2023-04-26T18:52:14.080Z,58.28
2023-04-26T18:54:41.013Z,58.28
2023-04-26T18:57:07.631Z,58.24
2023-04-26T18:59:37.064Z,58.64
2023-04-26T19:02:05.211Z,58.87
2023-04-26T19:04:32.252Z,59.23
2023-04-26T19:07:00.761Z,59.98
2023-04-26T19:09:27.512Z,60.64
2023-04-26T19:11:54.099Z,61.10
2023-04-26T19:14:20.924Z,61.34
2023-04-26T19:16:50.715Z,61.25
2023-04-26T19:19:17.377Z,61.39
2023-04-26T19:21:43.951Z,61.40
2023-04-26T19:24:10.713Z,61.45
2023-04-26T19:26:37.882Z,61.50
2023-04-26T19:29:06.723Z,61.82
2023-04-26T19:31:33.922Z,61.97
2023-04-26T19:34:00.668Z,61.79
2023-04-26T19:36:27.522Z,61.64
2023-04-26T19:38:54.279Z,61.31
2023-04-26T19:41:20.967Z,61.61
2023-04-26T19:43:47.867Z,62.02
2023-04-26T19:46:15.538Z,62.38
2023-04-26T19:48:42.429Z,62.63
2023-04-26T19:51:15.357Z,63.22
2023-04-26T19:53:42.062Z,63.47
2023-04-26T19:56:10.966Z,63.88
2023-04-26T19:58:38.834Z,64.25
2023-04-26T20:01:05.853Z,64.37
2023-04-26T20:03:33.270Z,64.76
2023-04-26T20:06:00.577Z,64.70
2023-04-26T20:08:27.609Z,65.00
2023-04-26T20:10:54.990Z,64.77
2023-04-26T20:13:22.246Z,65.18
2023-04-26T20:15:49.162Z,65.29
2023-04-26T20:18:15.937Z,65.76
2023-04-26T20:20:42.699Z,65.72
2023-04-26T20:23:09.450Z,65.96
2023-04-26T20:25:36.333Z,65.99
2023-04-26T20:28:04.253Z,66.00
2023-04-26T20:30:33.671Z,66.10
2023-04-26T20:33:00.732Z,66.35
2023-04-26T20:35:27.646Z,66.40
2023-04-26T20:37:54.400Z,66.44
2023-04-26T20:40:22.134Z,66.88
2023-04-26T20:42:49.005Z,66.92
2023-04-26T20:45:16.672Z,67.13
2023-04-26T20:47:43.876Z,67.33
2023-04-26T20:50:11.032Z,67.33
2023-04-26T20:52:37.660Z,67.27
2023-04-26T20:55:04.682Z,67.22
2023-04-26T20:57:31.420Z,67.37
2023-04-26T20:59:58.196Z,67.39
2023-04-26T21:02:25.159Z,67.50
2023-04-26T21:04:52.131Z,67.34
2023-04-26T21:07:18.908Z,67.46
2023-04-26T21:09:45.787Z,67.95
2023-04-26T21:12:12.447Z,67.69
2023-04-26T21:14:39.122Z,67.79
2023-04-26T21:17:05.891Z,67.66
2023-04-26T21:19:32.800Z,67.87
2023-04-26T21:21:59.690Z,67.72
2023-04-26T21:24:26.597Z,67.66
2023-04-26T21:26:53.791Z,67.81
2023-04-26T21:29:24.377Z,67.81
2023-04-26T21:31:51.115Z,68.09
2023-04-26T21:34:50.607Z,68.08
2023-04-26T21:37:17.708Z,67.90
2023-04-26T21:39:44.649Z,68.33
2023-04-26T21:42:11.852Z,68.29
2023-04-26T21:44:38.764Z,68.31
2023-04-26T21:47:08.400Z,68.26
2023-04-26T21:49:38.720Z,68.45
2023-04-26T21:52:08.131Z,68.78
2023-04-26T21:54:58.830Z,68.71
2023-04-26T21:57:25.931Z,68.86
2023-04-26T21:59:53.152Z,68.77
2023-04-26T22:02:19.987Z,68.97
2023-04-26T22:04:47.542Z,69.31
2023-04-26T22:07:14.645Z,69.24
2023-04-26T22:09:44.483Z,69.39
2023-04-26T22:12:11.865Z,69.29
2023-04-26T22:14:38.787Z,69.37
2023-04-26T22:17:05.981Z,69.14
2023-04-26T22:19:32.679Z,69.35
2023-04-26T22:21:59.369Z,69.59
2023-04-26T22:27:11.942Z,69.55
2023-04-26T22:29:38.982Z,69.67
2023-04-26T22:32:05.970Z,69.57
2023-04-26T22:34:32.839Z,69.75
2023-04-26T22:37:13.301Z,69.89
2023-04-26T22:39:46.833Z,70.15
2023-04-26T22:42:13.533Z,70.03
2023-04-26T22:44:40.140Z,70.05
2023-04-26T22:47:07.095Z,70.10
2023-04-26T22:49:33.766Z,70.25
2023-04-26T22:52:07.961Z,70.02
2023-04-26T22:54:38.744Z,70.19
2023-04-26T22:57:07.420Z,70.33
2023-04-26T22:59:34.451Z,70.19
2023-04-26T23:02:02.346Z,70.25
2023-04-26T23:04:28.997Z,70.35
2023-04-26T23:06:55.937Z,70.52
2023-04-26T23:09:23.262Z,70.55
2023-04-26T23:11:50.158Z,70.51
2023-04-26T23:14:17.250Z,70.42
2023-04-26T23:16:44.129Z,70.65
2023-04-26T23:19:11.315Z,70.88
2023-04-26T23:21:38.151Z,70.47
2023-04-26T23:24:06.454Z,70.66
2023-04-26T23:26:33.378Z,70.84
2023-04-26T23:29:00.645Z,70.82
2023-04-26T23:31:27.571Z,70.73
2023-04-26T23:33:56.057Z,70.75
2023-04-26T23:36:22.748Z,70.84
2023-04-26T23:38:49.618Z,70.95
2023-04-26T23:41:16.307Z,71.11
2023-04-26T23:43:42.991Z,71.25
2023-04-26T23:46:09.950Z,70.98
2023-04-26T23:48:36.678Z,71.27
2023-04-26T23:51:04.000Z,71.05
2023-04-26T23:53:30.952Z,71.18
2023-04-26T23:55:57.705Z,71.44
2023-04-26T23:58:24.658Z,71.24
